Time;durP1;ratioP1;P1;durP2;ratioP2;P2;SDS_P1;SDS_P2;PMS_P1;PMS_P2;Temp;Humidity;BMP_temperature;BMP_pressure;BME280_temperature;BME280_humidity;BME280_pressure;Samples;Min_cycle;Max_cycle;Signal;HPM_P1;HPM_P2
2022/06/01 00:00:26;;;;;;;8.48;3.62;;;;;;;14.84;60.17;100047.85;2049474;86;28621;-67
2022/06/01 00:03:32;;;;;;;;;;;;;;;14.87;61.29;100053.03;2086501;84;27711;-69
2022/06/01 00:06:34;;;;;;;4.95;2.70;;;;;;;14.89;61.93;100047.05;2084448;84;33122;-67
2022/06/01 00:09:35;;;;;;;3.35;2.52;;;;;;;14.88;62.37;100045.81;2084475;85;29353;-68
2022/06/01 00:12:37;;;;;;;3.85;3.05;;;;;;;14.86;63.27;100036.97;2049625;86;27649;-67
2022/06/01 00:15:39;;;;;;;3.75;2.65;;;;;;;14.83;62.65;100035.34;2084306;85;28617;-67
2022/06/01 00:18:42;;;;;;;3.95;2.75;;;;;;;14.79;63.22;100039.25;2084762;85;31102;-66
2022/06/01 00:25:07;;;;;;;4.50;2.67;;;;;;;14.76;64.01;100044.86;2018339;88;29487;-67
2022/06/01 00:28:11;;;;;;;7.87;2.50;;;;;;;14.72;64.12;100051.44;2085510;85;27642;-66
2022/06/01 00:31:14;;;;;;;2.72;2.37;;;;;;;14.69;64.42;100033.66;2085233;85;29530;-66
2022/06/01 00:34:16;;;;;;;2.40;2.20;;;;;;;14.65;64.43;100038.84;2085203;85;30439;-66
2022/06/01 00:37:19;;;;;;;3.33;2.92;;;;;;;14.64;64.73;100037.62;2018137;88;33055;-66
2022/06/01 00:40:24;;;;;;;2.55;2.35;;;;;;;14.61;65.42;100044.56;2085474;85;29306;-66
2022/06/01 00:43:42;;;;;;;3.55;2.42;;;;;;;14.57;65.19;100043.43;2085366;85;36674;-66
2022/06/01 00:46:44;;;;;;;6.25;2.22;;;;;;;14.54;65.75;100046.34;2046748;86;28693;-66
2022/06/01 00:50:00;;;;;;;2.08;1.70;;;;;;;14.53;65.74;100045.11;2013477;87;32060;-66
2022/06/01 00:53:22;;;;;;;2.87;2.33;;;;;;;14.49;66.10;100053.87;2045928;86;33329;-66
2022/06/01 00:56:28;;;;;;;3.05;2.40;;;;;;;14.46;66.33;100049.20;1993102;88;29342;-66
2022/06/01 00:59:34;;;;;;;2.95;2.60;;;;;;;14.44;66.31;100042.58;2040047;87;27630;-66
2022/06/01 01:02:37;;;;;;;5.87;2.80;;;;;;;14.44;66.74;100045.27;2041313;87;29550;-66
2022/06/01 01:05:43;;;;;;;5.72;2.85;;;;;;;14.42;67.00;100042.66;2023518;87;32445;-66
2022/06/01 01:08:49;;;;;;;2.58;2.30;;;;;;;14.41;66.94;100040.94;2048123;86;33132;-66
2022/06/01 01:11:57;;;;;;;3.20;2.20;;;;;;;14.40;66.90;100039.71;2023915;87;29303;-66
2022/06/01 01:14:59;;;;;;;2.45;2.10;;;;;;;14.40;67.30;100038.36;2023668;88;27742;-66
2022/06/01 01:18:06;;;;;;;3.08;2.62;;;;;;;14.38;67.26;100033.09;2018449;87;29082;-66
2022/06/01 01:21:47;;;;;;;3.58;2.60;;;;;;;14.37;67.47;100025.09;2047954;86;31019;-66
2022/06/01 01:25:20;;;;;;;5.35;2.30;;;;;;;14.35;67.87;100018.95;2046339;86;32193;-65
2022/06/01 01:28:22;;;;;;;2.67;2.00;;;;;;;14.30;68.44;100002.27;2038524;87;30186;-65
2022/06/01 01:31:25;;;;;;;3.22;2.40;;;;;;;14.25;68.50;99995.83;2046311;87;27696;-66
2022/06/01 01:34:28;;;;;;;2.80;2.47;;;;;;;14.22;69.11;99991.52;2046249;87;29861;-65
2022/06/01 01:37:30;;;;;;;3.05;2.60;;;;;;;14.20;69.07;99979.14;2046058;87;32389;-66
2022/06/01 01:40:34;;;;;;;2.90;2.35;;;;;;;14.19;68.96;99978.77;2045891;87;33218;-65
2022/06/01 01:43:41;;;;;;;2.85;2.25;;;;;;;14.17;68.85;99976.66;2040111;86;29321;-65
2022/06/01 01:46:47;;;;;;;4.40;2.87;;;;;;;14.17;69.51;99964.53;2038068;87;27605;-66
2022/06/01 01:49:47;;;;;;;3.00;2.22;;;;;;;14.15;69.28;99943.57;2040625;87;28656;-66
2022/06/01 01:52:50;;;;;;;6.72;2.30;;;;;;;14.12;69.54;99946.00;2040349;87;31900;-66
2022/06/01 01:56:19;;;;;;;9.13;2.80;;;;;;;14.12;69.35;99939.27;2040613;87;33802;-65
2022/06/01 01:59:54;;;;;;;4.78;2.50;;;;;;;14.13;69.42;99943.69;2040292;87;29745;-65
2022/06/01 02:03:34;;;;;;;3.15;2.60;;;;;;;14.10;69.92;99931.28;2040452;87;27693;-65
2022/06/01 02:06:43;;;;;;;4.17;2.22;;;;;;;14.05;70.09;99919.98;2066121;85;29959;-65
2022/06/01 02:13:07;;;;;;;3.65;2.10;;;;;;;14.03;70.02;99925.09;2066234;86;34129;-65
2022/06/01 02:16:09;;;;;;;2.92;2.08;;;;;;;13.97;69.90;99928.61;2066185;85;30342;-65
2022/06/01 02:19:16;;;;;;;2.42;2.05;;;;;;;13.97;69.83;99930.42;2028582;87;27621;-65
2022/06/01 02:22:18;;;;;;;2.77;2.47;;;;;;;13.96;69.70;99926.00;2064859;86;28665;-65
2022/06/01 02:25:21;;;;;;;2.25;1.95;;;;;;;13.95;69.97;99926.50;2064565;85;31175;-66
2022/06/01 02:28:24;;;;;;;3.42;2.05;;;;;;;13.91;69.96;99924.98;2064281;85;34210;-66
2022/06/01 02:31:28;;;;;;;4.58;2.25;;;;;;;13.86;70.03;99927.13;2064349;86;30582;-67
2022/06/01 02:34:30;;;;;;;2.40;2.17;;;;;;;13.79;70.31;99924.00;2064872;85;27801;-67
2022/06/01 02:37:34;;;;;;;3.00;2.47;;;;;;;13.77;70.05;99925.09;2064437;86;28831;-66
2022/06/01 02:40:38;;;;;;;4.87;2.58;;;;;;;13.73;70.35;99920.88;2064603;86;32357;-66
2022/06/01 02:43:50;;;;;;;3.33;2.87;;;;;;;13.68;70.21;99918.51;2031266;87;33846;-66
2022/06/01 02:46:52;;;;;;;3.08;2.77;;;;;;;13.63;70.23;99911.22;2044504;87;29796;-66
2022/06/01 02:49:54;;;;;;;5.08;2.80;;;;;;;13.60;70.53;99917.69;2085308;85;27538;-66
2022/06/01 02:52:57;;;;;;;4.42;2.85;;;;;;;13.54;70.81;99918.59;2085351;85;29597;-67
2022/06/01 02:55:59;;;;;;;5.78;2.58;;;;;;;13.48;70.75;99911.81;2085279;85;31035;-66
2022/06/01 02:59:01;;;;;;;8.30;3.20;;;;;;;13.43;70.81;99917.48;2085333;85;33126;-66
2022/06/01 03:02:06;;;;;;;3.12;2.80;;;;;;;13.38;70.70;99917.77;2085299;85;29303;-66
2022/06/01 03:05:08;;;;;;;4.12;2.92;;;;;;;13.32;70.83;99920.01;2085212;85;27709;-66
2022/06/01 03:08:10;;;;;;;3.33;3.02;;;;;;;13.27;70.79;99924.83;2085182;85;28662;-66
2022/06/01 03:11:13;;;;;;;3.77;3.47;;;;;;;13.22;70.77;99921.11;2084272;85;32180;-66
2022/06/01 03:14:15;;;;;;;3.90;2.75;;;;;;;13.18;71.02;99922.27;2084156;85;32982;-66
2022/06/01 03:17:18;;;;;;;4.30;3.20;;;;;;;13.12;71.23;99932.95;2084277;85;30296;-66
2022/06/01 03:20:23;;;;;;;3.70;3.37;;;;;;;13.09;71.32;99928.27;2084330;84;27667;-66
2022/06/01 03:23:26;;;;;;;5.50;3.35;;;;;;;13.05;71.32;99926.28;2083940;85;29306;-66
2022/06/01 03:26:28;;;;;;;7.15;4.45;;;;;;;13.03;71.46;99930.89;2084106;85;31110;-67
2022/06/01 03:29:30;;;;;;;4.72;4.15;;;;;;;13.00;71.96;99933.28;2084052;84;33000;-66
2022/06/01 03:32:32;;;;;;;4.40;4.00;;;;;;;12.96;72.06;99921.02;2049412;86;29324;-64
2022/06/01 03:35:34;;;;;;;9.50;4.72;;;;;;;12.96;72.12;99909.39;2084309;85;27722;-65
2022/06/01 03:38:36;;;;;;;6.25;4.33;;;;;;;12.98;72.27;99908.81;2084242;85;28685;-65
2022/06/01 03:41:38;;;;;;;7.30;4.72;;;;;;;13.01;72.37;99909.95;2085367;85;32394;-65
2022/06/01 03:48:00;;;;;;;5.20;4.30;;;;;;;13.11;72.53;99912.91;2085276;85;30372;-65
2022/06/01 03:51:03;;;;;;;5.12;4.47;;;;;;;13.18;72.60;99916.89;2018471;88;27682;-65
2022/06/01 03:54:06;;;;;;;5.08;4.58;;;;;;;13.26;72.71;99918.60;2085349;85;29607;-65
2022/06/01 03:57:08;;;;;;;5.20;4.70;;;;;;;13.35;72.97;99921.16;2084957;85;32375;-65
2022/06/01 04:00:15;;;;;;;5.55;4.87;;;;;;;13.41;72.80;99921.25;2085280;85;33837;-65
2022/06/01 04:03:17;;;;;;;6.15;4.47;;;;;;;13.48;72.88;99919.88;2018362;88;29319;-65
2022/06/01 04:06:19;;;;;;;5.95;4.12;;;;;;;13.54;72.90;99924.83;2085617;85;27618;-65
2022/06/01 04:09:22;;;;;;;3.70;3.40;;;;;;;13.61;73.09;99930.65;2085380;84;29667;-65
2022/06/01 04:12:24;;;;;;;5.58;4.12;;;;;;;13.67;72.95;99931.59;2084010;85;31853;-65
2022/06/01 04:15:27;;;;;;;3.98;3.58;;;;;;;13.74;72.92;99933.37;2084447;85;34204;-65
2022/06/01 04:18:29;;;;;;;4.17;3.55;;;;;;;13.81;72.79;99931.49;2049546;86;30480;-65
2022/06/01 04:21:35;;;;;;;5.20;3.67;;;;;;;13.89;72.85;99937.69;2084246;84;27695;-65
2022/06/01 04:24:37;;;;;;;3.70;3.40;;;;;;;13.96;72.91;99943.51;2084562;85;28721;-65
2022/06/01 04:27:39;;;;;;;4.97;4.05;;;;;;;14.03;72.79;99940.78;2084385;85;31869;-65
2022/06/01 04:30:42;;;;;;;6.00;3.52;;;;;;;14.10;72.74;99943.40;2049276;86;33902;-64
2022/06/01 04:33:44;;;;;;;4.08;3.47;;;;;;;14.19;72.71;99937.00;2084147;84;29468;-64
2022/06/01 04:36:46;;;;;;;5.45;4.37;;;;;;;14.28;72.69;99937.69;2084319;84;27698;-65
2022/06/01 04:39:49;;;;;;;5.83;4.08;;;;;;;14.56;73.39;99931.68;2084817;85;29392;-65
2022/06/01 04:42:51;;;;;;;4.00;3.30;;;;;;;15.65;74.80;99936.20;2017297;86;32053;-65
2022/06/01 04:45:55;;;;;;;3.50;2.77;;;;;;;17.33;74.35;99940.51;2044511;86;33046;-65
2022/06/01 04:48:57;;;;;;;5.37;2.58;;;;;;;19.10;72.25;99948.27;2044419;86;30235;-65
2022/06/01 04:52:00;;;;;;;3.47;2.67;;;;;;;20.78;70.27;99937.49;2044529;87;27769;-65
2022/06/01 04:55:03;;;;;;;4.75;2.12;;;;;;;22.35;68.38;99948.96;2044393;87;29456;-65
2022/06/01 04:58:06;;;;;;;3.40;1.90;;;;;;;23.77;65.97;99941.92;2044406;86;32094;-65
2022/06/01 05:01:08;;;;;;;2.98;2.27;;;;;;;25.20;63.86;99941.36;2044405;87;32990;-65
2022/06/01 05:04:10;;;;;;;2.75;2.10;;;;;;;26.42;61.80;99941.89;2044290;86;30167;-65
2022/06/01 05:07:12;;;;;;;2.77;2.40;;;;;;;27.53;59.53;99942.35;2032617;86;28390;-65
2022/06/01 05:10:14;;;;;;;1.92;1.72;;;;;;;28.54;56.84;99954.70;2065437;85;30087;-66
2022/06/01 05:13:20;;;;;;;2.40;2.00;;;;;;;29.35;54.90;99949.91;2071872;85;32417;-67
2022/06/01 05:16:22;;;;;;;2.98;2.05;;;;;;;30.10;53.31;99955.83;2071980;85;33126;-66
2022/06/01 05:19:24;;;;;;;2.83;2.02;;;;;;;30.82;51.02;99955.58;2072131;85;29291;-66
2022/06/01 05:22:26;;;;;;;1.80;1.60;;;;;;;31.37;49.39;99951.84;2071491;85;27709;-67
2022/06/01 05:25:27;;;;;;;3.83;2.55;;;;;;;31.84;47.51;99950.68;2070385;85;28631;-65
2022/06/01 05:28:32;;;;;;;3.33;2.02;;;;;;;32.31;45.51;99949.43;2070166;85;31161;-65
2022/06/01 05:31:34;;;;;;;2.52;2.20;;;;;;;32.72;44.71;99952.92;2070390;85;32568;-65
2022/06/01 05:34:36;;;;;;;5.35;2.10;;;;;;;33.02;42.85;99953.54;2011712;87;29364;-65
2022/06/01 05:37:38;;;;;;;4.15;1.90;;;;;;;33.24;41.78;99960.54;2009745;88;28175;-64
2022/06/01 05:40:41;;;;;;;3.08;1.90;;;;;;;33.20;39.96;99961.53;2010961;88;29629;-65
2022/06/01 05:43:45;;;;;;;2.42;1.80;;;;;;;33.08;39.21;99959.25;2046692;86;31079;-65
2022/06/01 05:46:55;;;;;;;5.17;2.17;;;;;;;33.03;38.60;99967.72;2053201;86;33073;-66
2022/06/01 05:49:58;;;;;;;2.45;1.90;;;;;;;32.96;37.59;99973.92;2053110;86;30184;-66
2022/06/01 05:53:00;;;;;;;6.17;1.98;;;;;;;32.91;37.15;99981.25;2052297;86;27681;-65
2022/06/01 05:56:04;;;;;;;2.17;1.90;;;;;;;32.92;36.40;99979.62;2049976;86;29825;-66
2022/06/01 05:59:06;;;;;;;3.83;1.80;;;;;;;33.01;35.65;99981.54;2050314;86;31030;-65
2022/06/01 06:02:09;;;;;;;4.80;1.85;;;;;;;33.22;35.47;99980.75;2049682;86;33460;-67
2022/06/01 06:08:34;;;;;;;2.72;1.90;;;;;;;33.77;34.13;99991.70;2061257;86;27734;-66
2022/06/01 06:11:40;;;;;;;4.62;2.20;;;;;;;34.04;33.59;99987.15;2065775;86;28722;-65
2022/06/01 06:14:42;;;;;;;2.25;2.05;;;;;;;34.33;33.28;99988.67;2070807;85;31890;-66
2022/06/01 06:17:45;;;;;;;3.35;2.20;;;;;;;34.48;32.43;99984.58;2070785;86;34178;-66
2022/06/01 06:20:48;;;;;;;5.03;2.67;;;;;;;34.65;32.15;99987.48;2070839;86;29331;-65
2022/06/01 06:23:50;;;;;;;3.20;2.20;;;;;;;34.92;31.71;99984.98;2070930;86;28260;-66
2022/06/01 06:26:52;;;;;;;2.20;1.90;;;;;;;35.07;30.75;99987.84;2070323;86;29130;-66
2022/06/01 06:29:55;;;;;;;6.22;1.98;;;;;;;35.16;30.27;99986.34;2070541;86;31854;-66
2022/06/01 06:32:58;;;;;;;3.85;2.20;;;;;;;35.28;30.11;99996.06;2059068;86;33701;-66
2022/06/01 06:36:04;;;;;;;3.33;2.12;;;;;;;35.20;29.16;99993.66;2055260;86;30055;-65
2022/06/01 06:39:06;;;;;;;5.85;2.80;;;;;;;35.13;28.92;99991.88;2056439;86;27723;-65
2022/06/01 06:42:07;;;;;;;4.15;2.65;;;;;;;35.15;28.87;99998.58;2050864;86;29534;-66
2022/06/01 06:45:11;;;;;;;3.05;2.40;;;;;;;35.18;28.59;99996.70;2034825;85;31196;-65
2022/06/01 06:48:13;;;;;;;4.67;2.20;;;;;;;35.22;28.61;99988.16;2027930;87;33105;-66
2022/06/01 06:51:17;;;;;;;3.33;2.70;;;;;;;35.31;28.18;99991.92;2028095;87;30479;-67
2022/06/01 06:54:18;;;;;;;2.87;2.22;;;;;;;35.40;27.82;99989.05;2028191;87;27615;-67
2022/06/01 06:57:21;;;;;;;2.83;2.55;;;;;;;35.32;27.62;99997.27;2028161;87;28706;-67
2022/06/01 07:00:23;;;;;;;3.70;2.62;;;;;;;35.38;27.24;99996.25;2027757;87;31780;-66
2022/06/01 07:03:25;;;;;;;4.42;2.87;;;;;;;35.35;27.44;99990.34;2027648;87;34143;-66
2022/06/01 07:06:27;;;;;;;2.52;2.22;;;;;;;35.39;26.78;99997.94;2029658;87;29340;-68
2022/06/01 07:09:29;;;;;;;3.15;2.42;;;;;;;35.36;27.20;99997.60;1979206;89;27654;-69
2022/06/01 07:12:31;;;;;;;3.83;2.75;;;;;;;35.38;27.06;99996.81;1967973;89;29098;-66
2022/06/01 07:15:33;;;;;;;4.72;2.47;;;;;;;35.51;26.72;100004.03;1980623;89;32275;-66
2022/06/01 07:18:36;;;;;;;2.98;2.72;;;;;;;35.60;26.60;100006.73;1979155;89;34152;-67
2022/06/01 07:21:41;;;;;;;2.80;2.52;;;;;;;35.69;26.52;100012.73;2032518;85;27735;-67
2022/06/01 07:24:43;;;;;;;3.02;2.60;;;;;;;35.43;25.85;100010.81;2035071;87;28273;-67
2022/06/01 07:27:45;;;;;;;7.70;2.60;;;;;;;35.20;26.35;100006.19;2034690;87;29595;-68
2022/06/01 07:30:48;;;;;;;3.92;2.52;;;;;;;35.24;26.37;100008.78;2033827;87;31826;-69
2022/06/01 07:33:51;;;;;;;2.67;2.43;;;;;;;35.17;26.36;100005.28;2032967;87;32990;-68
2022/06/01 07:36:53;;;;;;;6.25;2.80;;;;;;;35.14;26.24;100008.88;2048116;86;32974;-68
2022/06/01 07:43:18;;;;;;;2.77;2.35;;;;;;;35.12;25.86;100006.03;2032927;87;29148;-67
2022/06/01 07:46:20;;;;;;;4.22;2.10;;;;;;;34.99;25.48;100009.40;2045105;85;31108;-67
2022/06/01 07:49:21;;;;;;;2.55;2.17;;;;;;;34.73;25.88;100009.91;2022574;87;33073;-68
2022/06/01 07:52:23;;;;;;;3.62;2.40;;;;;;;34.81;25.90;100001.17;2019018;88;29327;-67
2022/06/01 07:55:26;;;;;;;2.90;2.27;;;;;;;34.58;26.23;100009.87;2027238;87;27723;-68
2022/06/01 07:58:28;;;;;;;3.72;2.20;;;;;;;34.14;25.78;100010.71;2050094;86;28792;-67
2022/06/01 08:01:30;;;;;;;2.92;2.27;;;;;;;33.48;25.90;100019.83;2049907;86;31189;-66
2022/06/01 08:04:32;;;;;;;2.45;2.02;;;;;;;33.06;26.14;100015.00;2106717;84;33196;-68
2022/06/01 08:07:34;;;;;;;3.33;2.47;;;;;;;32.80;26.57;100018.34;2105364;84;29365;-69
2022/06/01 08:10:37;;;;;;;2.87;2.42;;;;;;;32.75;26.50;100015.44;2098813;84;28342;-68
2022/06/01 08:13:42;;;;;;;2.50;2.30;;;;;;;32.72;26.46;100018.11;2092756;84;28638;-68
2022/06/01 08:16:48;;;;;;;2.67;2.33;;;;;;;32.55;26.53;100024.81;2083153;85;31413;-67
2022/06/01 08:19:50;;;;;;;4.28;2.33;;;;;;;32.50;26.90;100027.41;2082307;84;34045;-70
2022/06/01 08:22:53;;;;;;;4.33;2.40;;;;;;;32.47;26.82;100029.80;2082085;85;29370;-68
2022/06/01 08:25:55;;;;;;;5.80;2.23;;;;;;;32.37;26.85;100024.77;2082526;84;27731;-70
2022/06/01 08:28:57;;;;;;;3.85;2.50;;;;;;;32.35;27.20;100031.91;2082368;84;28646;-71
2022/06/01 08:31:59;;;;;;;4.92;2.33;;;;;;;32.27;27.08;100026.67;2082354;85;31008;-72
2022/06/01 08:35:08;;;;;;;3.77;2.27;;;;;;;32.24;27.18;100030.72;2098531;84;33666;-73
2022/06/01 08:38:12;;;;;;;2.77;1.95;;;;;;;32.17;26.59;100027.14;2099865;84;29394;-71
2022/06/01 08:41:15;;;;;;;6.17;2.35;;;;;;;32.06;26.91;100025.95;2089012;84;27770;-70
2022/06/01 08:44:25;;;;;;;2.12;1.95;;;;;;;32.07;26.79;100033.73;2094254;84;29679;-69
2022/06/01 08:47:34;;;;;;;3.72;2.50;;;;;;;31.73;26.54;100027.59;2100828;84;30485;-73
2022/06/01 08:50:39;;;;;;;3.62;2.42;;;;;;;31.28;26.97;100035.35;2091566;84;33880;-70
2022/06/01 08:53:41;;;;;;;2.72;2.30;;;;;;;31.22;27.06;100040.69;2068609;84;29392;-68
2022/06/01 08:56:49;;;;;;;2.05;1.90;;;;;;;31.16;27.21;100031.90;2081348;84;27709;-73
2022/06/01 09:00:15;;;;;;;2.55;1.92;;;;;;;31.17;27.47;100029.45;2080750;84;28642;-71
2022/06/01 09:03:22;;;;;;;2.35;1.60;;;;;;;30.97;27.15;100039.70;2034518;87;31130;-72
2022/06/01 09:06:32;;;;;;;2.55;1.50;;;;;;;30.60;26.77;100047.13;2034666;85;32700;-71
2022/06/01 09:09:42;;;;;;;2.08;1.72;;;;;;;30.36;26.66;100040.31;2029631;86;30608;-71
2022/06/01 09:12:46;;;;;;;4.53;2.02;;;;;;;30.23;26.98;100040.61;2056246;84;27628;-70
2022/06/01 09:16:05;;;;;;;4.67;1.57;;;;;;;30.13;26.76;100040.20;2060463;86;28653;-69
2022/06/01 09:19:11;;;;;;;3.12;1.55;;;;;;;30.04;26.67;100042.83;2060282;86;31047;-68
2022/06/01 09:25:35;;;;;;;1.65;1.55;;;;;;;30.30;26.44;100044.23;2059853;86;29365;-68
2022/06/01 09:28:39;;;;;;;2.20;1.22;;;;;;;30.19;26.38;100046.27;2036834;85;27645;-70
2022/06/01 09:31:43;;;;;;;3.22;1.52;;;;;;;30.08;25.60;100052.41;2015313;88;28142;-73
2022/06/01 09:34:49;;;;;;;2.50;1.25;;;;;;;29.53;25.46;100047.82;2070270;85;31094;-72
2022/06/01 09:37:50;;;;;;;3.87;1.50;;;;;;;29.20;25.50;100036.94;2089631;85;33183;-68
2022/06/01 09:41:13;;;;;;;4.42;1.40;;;;;;;29.18;26.16;100031.31;2089787;85;29993;-68
2022/06/01 09:44:19;;;;;;;4.47;1.17;;;;;;;29.09;25.33;100034.23;2089911;84;27748;-69
2022/06/01 09:47:35;;;;;;;1.52;1.30;;;;;;;28.83;25.27;100032.72;2096439;84;29447;-69
2022/06/01 09:50:40;;;;;;;3.65;1.17;;;;;;;28.57;24.69;100028.69;2084235;85;31062;-68
2022/06/01 09:53:50;;;;;;;2.85;1.20;;;;;;;28.32;24.27;100027.24;2084616;85;33738;-68
2022/06/01 09:56:52;;;;;;;1.37;1.20;;;;;;;28.07;25.24;100024.03;2084179;84;29324;-69
2022/06/01 10:06:55;;;;;;;2.10;1.40;;;;;;;27.90;26.10;100031.19;2049287;86;31920;-68
2022/06/01 10:10:04;;;;;;;2.12;1.20;;;;;;;27.75;26.15;100022.14;2084133;85;33647;-68
2022/06/01 10:13:06;;;;;;;1.55;1.30;;;;;;;27.67;26.16;100036.05;2084199;85;29398;-68
2022/06/01 10:16:43;;;;;;;4.50;1.47;;;;;;;27.49;26.69;100030.96;2084370;84;27769;-69
2022/06/01 10:20:16;;;;;;;1.82;1.40;;;;;;;27.46;26.94;100034.97;2082320;84;29881;-68
2022/06/01 10:23:41;;;;;;;7.55;2.00;;;;;;;27.49;27.34;100037.84;2082235;85;31669;-69
2022/06/01 10:26:51;;;;;;;4.58;1.95;;;;;;;27.55;27.34;100040.66;2082033;84;32960;-68
2022/06/01 10:29:59;;;;;;;2.50;1.57;;;;;;;27.47;27.15;100036.67;2082197;85;29604;-68
2022/06/01 10:33:08;;;;;;;5.12;1.60;;;;;;;27.47;27.35;100039.42;2080526;85;27690;-69
2022/06/01 10:36:43;;;;;;;1.62;1.25;;;;;;;27.62;27.62;100042.14;2081492;85;28267;-69
2022/06/01 10:40:17;;;;;;;2.27;1.62;;;;;;;27.78;27.76;100051.20;2082040;85;31711;-70
2022/06/01 10:43:46;;;;;;;2.08;1.67;;;;;;;27.94;27.37;100045.94;2082285;85;32995;-68
2022/06/01 10:47:14;;;;;;;3.40;2.10;;;;;;;28.01;27.16;100057.35;2081734;85;29405;-67
2022/06/01 10:50:33;;;;;;;8.08;2.15;;;;;;;27.95;26.94;100060.05;2051875;86;27697;-69
2022/06/01 10:53:59;;;;;;;4.05;1.50;;;;;;;27.75;26.84;100057.93;2044218;86;28657;-69
2022/06/01 10:57:06;;;;;;;5.53;1.47;;;;;;;27.46;26.65;100059.73;2047772;86;31878;-68
2022/06/01 11:00:13;;;;;;;3.25;1.55;;;;;;;27.31;26.99;100055.59;2056121;86;33048;-68
2022/06/01 11:03:35;;;;;;;1.95;1.40;;;;;;;27.25;27.22;100051.71;2081878;85;29448;-68
2022/06/01 11:07:00;;;;;;;1.98;1.50;;;;;;;27.22;27.35;100052.62;2084500;85;27722;-68
2022/06/01 11:10:42;;;;;;;2.40;1.42;;;;;;;27.20;27.67;100057.46;2083888;85;28705;-68
2022/06/01 11:14:04;;;;;;;1.52;1.17;;;;;;;27.07;27.59;100059.00;2049392;86;32013;-68
2022/06/01 11:17:26;;;;;;;4.30;1.30;;;;;;;26.90;27.52;100057.48;2084210;84;33082;-68
2022/06/01 11:20:51;;;;;;;2.58;1.60;;;;;;;26.87;28.16;100061.98;2085952;85;29327;-69
2022/06/01 11:24:23;;;;;;;2.87;1.30;;;;;;;26.84;27.94;100052.23;2104786;84;27705;-70
2022/06/01 11:27:52;;;;;;;2.30;1.20;;;;;;;26.79;27.82;100055.55;2064567;86;28708;-69
2022/06/01 11:31:09;;;;;;;3.25;1.35;;;;;;;26.79;28.11;100047.78;2070897;86;31052;-69
2022/06/01 11:34:25;;;;;;;1.55;1.30;;;;;;;26.81;28.11;100043.81;2050005;86;32973;-69
2022/06/01 11:37:35;;;;;;;4.65;1.42;;;;;;;26.76;27.74;100053.14;2106669;84;29368;-68
2022/06/01 11:40:57;;;;;;;2.52;1.30;;;;;;;26.57;27.71;100054.52;2095026;84;28153;-69
2022/06/01 11:44:13;;;;;;;1.42;1.25;;;;;;;26.51;27.85;100052.02;2081972;85;29441;-68
2022/06/01 11:47:19;;;;;;;4.28;1.47;;;;;;;26.56;28.05;100051.44;2071536;85;31871;-69
2022/06/01 11:50:48;;;;;;;1.77;1.40;;;;;;;26.69;28.71;100044.80;2068651;85;33046;-68
2022/06/01 11:54:17;;;;;;;2.85;1.20;;;;;;;26.77;28.55;100050.73;2068817;85;29345;-68
2022/06/01 11:57:28;;;;;;;4.78;1.50;;;;;;;26.90;28.47;100051.45;2068001;85;27688;-68
2022/06/01 12:00:52;;;;;;;2.90;1.50;;;;;;;27.08;28.20;100041.45;2070992;85;29410;-69
2022/06/01 12:04:19;;;;;;;2.77;1.45;;;;;;;27.19;28.31;100051.63;2085327;85;31959;-68
2022/06/01 12:07:33;;;;;;;2.70;1.40;;;;;;;27.32;28.44;100053.17;2086917;85;33856;-68
2022/06/01 12:10:57;;;;;;;;;;;;;;;27.49;28.03;100052.97;2095167;84;30108;-68
2022/06/01 12:14:00;;;;;;;1.65;1.30;;;;;;;27.64;27.94;100046.06;2087132;84;27702;-68
2022/06/01 12:17:25;;;;;;;6.17;1.35;;;;;;;27.78;27.96;100053.95;2086551;85;28672;-68
2022/06/01 12:20:39;;;;;;;3.80;1.65;;;;;;;27.82;27.84;100049.73;2086862;84;31767;-68
2022/06/01 12:30:57;;;;;;;6.15;1.35;;;;;;;27.68;27.27;100046.85;1987304;89;27821;-68
2022/06/01 12:34:27;;;;;;;2.70;1.60;;;;;;;27.53;27.56;100040.54;1972935;88;28867;-68
2022/06/01 12:38:00;;;;;;;1.95;1.35;;;;;;;27.40;27.70;100042.06;1972502;90;31049;-68
2022/06/01 12:41:14;;;;;;;3.15;1.55;;;;;;;27.28;27.84;100044.45;1971846;89;33984;-68
2022/06/01 12:44:17;;;;;;;3.60;1.80;;;;;;;27.07;27.92;100043.00;1971377;88;29395;-68
2022/06/01 12:47:39;;;;;;;4.62;1.70;;;;;;;26.86;28.33;100033.66;1972362;90;28036;-67
2022/06/01 12:51:02;;;;;;;5.30;1.95;;;;;;;26.66;28.27;100029.19;1972570;88;28109;-68
2022/06/01 12:54:04;;;;;;;3.00;1.47;;;;;;;26.46;28.47;100031.64;1972694;90;31024;-68
2022/06/01 12:57:14;;;;;;;2.50;1.50;;;;;;;26.42;28.56;100035.80;1951829;90;33122;-67
2022/06/01 13:00:27;;;;;;;4.75;1.70;;;;;;;26.42;28.44;100033.92;1973108;89;30241;-68
2022/06/01 13:03:32;;;;;;;2.37;1.05;;;;;;;26.39;28.63;100035.12;2039779;85;27714;-67
2022/06/01 13:06:39;;;;;;;3.35;1.60;;;;;;;26.37;28.47;100037.73;2087178;85;29825;-68
2022/06/01 13:09:41;;;;;;;2.02;1.60;;;;;;;26.27;28.11;100042.11;2092955;84;31158;-67
2022/06/01 13:12:43;;;;;;;8.03;1.62;;;;;;;26.11;27.93;100043.13;2086612;85;33064;-68
2022/06/01 13:16:04;;;;;;;2.20;1.30;;;;;;;25.90;27.94;100050.11;2086912;84;30538;-67
2022/06/01 13:19:31;;;;;;;7.45;2.15;;;;;;;25.70;28.25;100055.73;2086815;84;27784;-67
2022/06/01 13:22:39;;;;;;;2.52;1.12;;;;;;;25.45;28.33;100057.27;2010985;87;28772;-68
2022/06/01 13:25:41;;;;;;;2.45;1.77;;;;;;;25.08;28.50;100065.09;2008134;88;31798;-68
2022/06/01 13:28:46;;;;;;;2.47;1.77;;;;;;;24.78;28.93;100068.13;2008069;88;32966;-67
2022/06/01 13:31:52;;;;;;;1.72;1.27;;;;;;;24.63;29.61;100076.16;2007847;88;29438;-67
2022/06/01 13:34:59;;;;;;;2.20;1.52;;;;;;;24.46;30.37;100087.66;2008145;88;27846;-68
2022/06/01 13:38:03;;;;;;;1.82;1.50;;;;;;;24.32;30.49;100079.61;2007772;88;28665;-68
2022/06/01 13:41:26;;;;;;;2.70;1.17;;;;;;;24.27;30.47;100091.08;2008106;88;31903;-69
2022/06/01 13:44:49;;;;;;;2.80;1.42;;;;;;;24.30;30.41;100089.38;2008289;88;33597;-67
2022/06/01 13:47:59;;;;;;;3.45;1.50;;;;;;;24.31;30.65;100087.48;2012029;86;29388;-68
2022/06/01 13:51:05;;;;;;;1.17;1.07;;;;;;;24.30;30.75;100095.34;2013910;87;27743;-69
2022/06/01 13:54:31;;;;;;;3.35;1.77;;;;;;;24.22;30.60;100090.73;2037883;86;28658;-69
2022/06/01 13:57:49;;;;;;;2.05;1.20;;;;;;;24.12;30.88;100098.61;2040434;87;30927;-68
2022/06/01 14:01:05;;;;;;;2.08;1.30;;;;;;;24.04;31.12;100099.95;2040783;87;32985;-68
2022/06/01 14:04:31;;;;;;;2.70;1.55;;;;;;;23.93;31.13;100094.79;2040172;87;29513;-68
2022/06/01 14:07:49;;;;;;;2.47;1.50;;;;;;;23.78;31.28;100094.08;2040379;87;27731;-67
2022/06/01 14:10:52;;;;;;;1.32;1.20;;;;;;;23.65;31.63;100100.03;2040705;87;28712;-68
2022/06/01 14:13:54;;;;;;;1.87;1.30;;;;;;;23.49;31.70;100099.97;2040659;87;31670;-68
2022/06/01 14:16:57;;;;;;;3.10;1.55;;;;;;;23.37;32.06;100103.52;2040633;87;33723;-68
2022/06/01 14:19:59;;;;;;;2.62;1.50;;;;;;;23.27;32.05;100096.80;2040691;85;29519;-68
2022/06/01 14:23:01;;;;;;;2.08;1.30;;;;;;;23.16;32.33;100095.22;2037989;87;27747;-68
2022/06/01 14:29:23;;;;;;;1.50;1.30;;;;;;;22.87;32.58;100099.66;2060050;86;31005;-69
2022/06/01 14:32:25;;;;;;;1.40;1.30;;;;;;;22.75;32.64;100094.45;2059767;86;32859;-69
2022/06/01 14:35:31;;;;;;;2.77;1.62;;;;;;;22.72;33.07;100097.53;2060070;86;29448;-69
2022/06/01 14:38:32;;;;;;;6.42;2.12;;;;;;;22.74;33.10;100086.42;2060116;86;27680;-69
2022/06/01 14:41:42;;;;;;;2.27;1.50;;;;;;;22.86;33.26;100085.13;2060528;86;28678;-68
2022/06/01 14:44:43;;;;;;;3.05;1.47;;;;;;;23.05;33.38;100082.69;2060078;86;31052;-69
2022/06/01 14:47:45;;;;;;;1.82;1.45;;;;;;;23.19;33.41;100080.36;2071965;85;33102;-69
2022/06/01 14:50:47;;;;;;;1.37;1.27;;;;;;;23.27;33.42;100079.56;2081843;85;29387;-69
2022/06/01 14:53:50;;;;;;;2.22;1.50;;;;;;;23.32;33.20;100079.94;2099399;84;27715;-68
2022/06/01 14:56:53;;;;;;;4.67;1.50;;;;;;;23.28;33.13;100076.66;2106500;84;29671;-69
2022/06/01 14:59:56;;;;;;;1.67;1.17;;;;;;;23.27;33.21;100069.47;2106992;84;31025;-68
2022/06/01 15:03:02;;;;;;;3.25;1.30;;;;;;;23.20;33.06;100069.77;2106212;84;28133;-68
2022/06/01 15:06:09;;;;;;;4.72;1.77;;;;;;;23.09;33.09;100063.21;2108453;84;29611;-69
2022/06/01 15:09:15;;;;;;;4.37;1.60;;;;;;;22.99;32.80;100062.84;2107020;84;33557;-69
2022/06/01 15:12:21;;;;;;;3.12;1.20;;;;;;;22.87;32.80;100058.69;2106872;84;28644;-70
2022/06/01 15:15:25;;;;;;;1.52;1.27;;;;;;;22.74;32.74;100052.30;2106605;84;31023;-70